Time;durP1;ratioP1;P1;durP2;ratioP2;P2;SDS_P1;SDS_P2;PMS_P1;PMS_P2;Temp;Humidity;BMP_temperature;BMP_pressure;BME280_temperature;BME280_humidity;BME280_pressure;Samples;Min_cycle;Max_cycle;Signal;HPM_P1;HPM_P2
2021/05/24 00:00:52;;;;;;;7.15;3.15;;;19.70;54.00;;;;;;5138561;27;20027;-74
2021/05/24 00:03:18;;;;;;;5.85;2.45;;;19.70;54.20;;;;;;5156217;27;20022;-74
2021/05/24 00:05:43;;;;;;;3.17;2.65;;;19.70;54.40;;;;;;5156138;27;20023;-74
2021/05/24 00:08:09;;;;;;;3.40;2.60;;;19.70;54.60;;;;;;5156199;27;20022;-74
2021/05/24 00:10:38;;;;;;;4.30;2.38;;;19.70;54.80;;;;;;5156008;27;20045;-74
2021/05/24 00:13:07;;;;;;;4.75;2.50;;;19.70;55.10;;;;;;5155700;27;20476;-74
2021/05/24 00:15:45;;;;;;;4.32;2.70;;;19.70;55.10;;;;;;5155719;27;20041;-74
2021/05/24 00:18:11;;;;;;;3.67;2.30;;;19.70;55.20;;;;;;5155953;27;20075;-76
2021/05/24 00:20:40;;;;;;;8.07;2.55;;;19.70;55.10;;;;;;5155885;27;20029;-74
2021/05/24 00:23:07;;;;;;;3.42;2.63;;;19.70;55.40;;;;;;5155765;27;20026;-74
2021/05/24 00:25:33;;;;;;;4.97;2.67;;;19.70;55.50;;;;;;5156133;27;20014;-74
2021/05/24 00:28:00;;;;;;;3.50;2.50;;;19.70;55.80;;;;;;5137356;27;20019;-74
2021/05/24 00:30:32;;;;;;;4.63;2.42;;;19.70;55.90;;;;;;5155640;27;20033;-74
2021/05/24 00:32:59;;;;;;;3.22;2.20;;;19.70;56.10;;;;;;5155547;27;20027;-74
2021/05/24 00:35:25;;;;;;;3.42;2.40;;;19.70;56.10;;;;;;5155566;27;20033;-75
2021/05/24 00:37:51;;;;;;;2.72;2.30;;;19.80;56.10;;;;;;5155818;27;20524;-74
2021/05/24 00:40:17;;;;;;;3.83;2.30;;;19.80;56.00;;;;;;5156017;27;20110;-74
2021/05/24 00:42:42;;;;;;;5.40;3.30;;;19.70;55.80;;;;;;5155431;27;20507;-74
2021/05/24 00:45:09;;;;;;;11.13;4.38;;;19.70;55.40;;;;;;5155553;27;20018;-74
2021/05/24 00:47:35;;;;;;;6.55;4.25;;;19.60;54.40;;;;;;5156020;27;20085;-74
2021/05/24 00:50:02;;;;;;;9.48;4.65;;;19.40;54.30;;;;;;5155187;27;20019;-74
2021/05/24 00:52:27;;;;;;;11.07;4.68;;;19.20;54.30;;;;;;5137033;27;20359;-74
2021/05/24 00:54:53;;;;;;;8.18;4.90;;;19.00;54.70;;;;;;5155425;27;20159;-74
2021/05/24 00:57:19;;;;;;;12.23;4.70;;;18.90;55.00;;;;;;5155644;27;20023;-74
2021/05/24 00:59:45;;;;;;;8.95;5.13;;;18.80;55.40;;;;;;5155375;27;20101;-74
2021/05/24 01:02:10;;;;;;;5.90;4.45;;;18.70;55.80;;;;;;5155618;27;20031;-74
2021/05/24 01:04:36;;;;;;;13.75;4.63;;;18.60;56.70;;;;;;5155493;27;20043;-74
2021/05/24 01:07:03;;;;;;;7.70;4.32;;;18.50;57.20;;;;;;5136670;27;20026;-74
2021/05/24 01:09:29;;;;;;;5.38;3.42;;;18.30;57.90;;;;;;5155763;27;20026;-74
2021/05/24 01:11:55;;;;;;;6.55;3.67;;;18.20;58.20;;;;;;5155068;27;20029;-74
2021/05/24 01:14:21;;;;;;;4.53;3.65;;;18.10;58.50;;;;;;5154913;27;20057;-74
2021/05/24 01:16:54;;;;;;;8.10;4.30;;;17.90;59.20;;;;;;5155142;27;20440;-74
2021/05/24 01:19:21;;;;;;;5.80;3.63;;;17.80;60.00;;;;;;5155110;27;20070;-74
2021/05/24 01:21:47;;;;;;;6.38;3.95;;;17.70;60.50;;;;;;5136544;27;20034;-73
2021/05/24 01:24:14;;;;;;;7.57;3.83;;;17.60;61.10;;;;;;5155399;27;20027;-74
2021/05/24 01:26:42;;;;;;;6.80;4.40;;;17.50;61.60;;;;;;5155049;27;20102;-74
2021/05/24 01:29:08;;;;;;;4.45;3.63;;;17.40;62.40;;;;;;5158428;27;20520;-74
2021/05/24 01:31:33;;;;;;;4.20;3.72;;;17.30;62.80;;;;;;5159745;27;20106;-75
2021/05/24 01:34:01;;;;;;;3.60;3.08;;;17.20;63.10;;;;;;5159072;27;20072;-74
2021/05/24 01:36:27;;;;;;;5.30;3.90;;;17.10;63.40;;;;;;5158639;27;20042;-75
2021/05/24 01:38:53;;;;;;;5.75;3.60;;;17.00;64.50;;;;;;5158764;27;20365;-74
2021/05/24 01:41:19;;;;;;;5.70;3.72;;;16.90;65.30;;;;;;5159013;27;20019;-75
2021/05/24 01:43:46;;;;;;;7.65;3.63;;;16.80;65.80;;;;;;5159645;27;20046;-74
2021/05/24 01:46:12;;;;;;;6.97;3.92;;;16.70;66.00;;;;;;5159119;27;20109;-74
2021/05/24 01:48:38;;;;;;;5.97;4.30;;;16.70;66.90;;;;;;5158522;27;20026;-74
2021/05/24 01:51:06;;;;;;;7.05;3.75;;;16.60;66.70;;;;;;5158726;27;20033;-74
2021/05/24 01:53:32;;;;;;;5.38;3.60;;;16.60;67.20;;;;;;5158958;27;20056;-74
2021/05/24 01:55:57;;;;;;;6.72;4.18;;;16.60;67.40;;;;;;5140912;27;20030;-74
2021/05/24 01:58:24;;;;;;;7.25;3.90;;;16.60;67.80;;;;;;5158527;27;20038;-74
2021/05/24 02:00:50;;;;;;;9.48;4.07;;;16.70;68.10;;;;;;5158607;27;20023;-74
2021/05/24 02:03:16;;;;;;;6.45;4.38;;;16.70;68.40;;;;;;5158326;27;20026;-73
2021/05/24 02:05:42;;;;;;;7.47;3.80;;;16.70;69.00;;;;;;5158522;27;20023;-74
2021/05/24 02:08:08;;;;;;;5.90;3.90;;;16.80;69.20;;;;;;5158271;27;20030;-74
2021/05/24 02:10:39;;;;;;;7.80;4.18;;;16.80;69.50;;;;;;5158415;27;20037;-74
2021/05/24 02:13:06;;;;;;;7.25;4.28;;;16.80;70.10;;;;;;5139744;27;20037;-74
2021/05/24 02:15:35;;;;;;;7.53;4.32;;;16.90;70.50;;;;;;5140191;27;20403;-74
2021/05/24 02:18:02;;;;;;;6.20;4.00;;;16.90;70.80;;;;;;5157999;27;20468;-74
2021/05/24 02:20:28;;;;;;;6.25;3.83;;;16.90;70.90;;;;;;5158486;27;20065;-74
2021/05/24 02:22:56;;;;;;;7.07;3.70;;;16.90;70.80;;;;;;5158124;27;20094;-74
2021/05/24 02:25:22;;;;;;;6.93;3.95;;;16.90;71.00;;;;;;5158023;27;20068;-74
2021/05/24 02:27:49;;;;;;;6.18;4.40;;;16.90;71.30;;;;;;5158348;27;20487;-74
2021/05/24 02:30:17;;;;;;;7.40;4.40;;;16.80;71.60;;;;;;5139416;27;20033;-74
2021/05/24 02:32:43;;;;;;;8.57;4.45;;;16.80;71.80;;;;;;5157605;27;20380;-74
2021/05/24 02:35:11;;;;;;;8.60;4.97;;;16.80;72.00;;;;;;5157938;27;20022;-74
2021/05/24 02:37:38;;;;;;;9.43;5.00;;;16.70;72.10;;;;;;5157819;27;20026;-74
2021/05/24 02:40:06;;;;;;;8.05;4.38;;;16.70;72.70;;;;;;5158093;27;20023;-74
2021/05/24 02:42:32;;;;;;;8.82;4.93;;;16.70;73.40;;;;;;5158081;27;20034;-74
2021/05/24 02:44:58;;;;;;;8.32;4.70;;;16.70;73.60;;;;;;5157466;27;20033;-74
2021/05/24 02:47:24;;;;;;;8.30;4.18;;;16.70;73.70;;;;;;5157964;27;20101;-74
2021/05/24 02:49:49;;;;;;;6.28;4.05;;;16.80;73.60;;;;;;5158288;27;20026;-74
2021/05/24 02:52:15;;;;;;;7.15;4.53;;;16.70;73.30;;;;;;5157564;27;20460;-74
2021/05/24 02:54:41;;;;;;;7.45;4.75;;;16.70;73.20;;;;;;5156593;27;20073;-74
2021/05/24 02:57:07;;;;;;;9.07;5.07;;;16.70;73.30;;;;;;5157559;27;20019;-74
2021/05/24 02:59:33;;;;;;;11.13;5.57;;;16.60;73.60;;;;;;5157746;27;20019;-75
2021/05/24 03:02:01;;;;;;;7.28;5.40;;;16.60;74.20;;;;;;5157634;27;20105;-74
2021/05/24 03:04:28;;;;;;;12.50;6.13;;;16.50;74.50;;;;;;5139479;27;20467;-75
2021/05/24 03:06:54;;;;;;;9.23;5.40;;;16.50;75.10;;;;;;5156237;27;20030;-74
2021/05/24 03:09:20;;;;;;;10.40;5.40;;;16.50;75.30;;;;;;5158099;27;20026;-74
2021/05/24 03:11:46;;;;;;;8.90;5.43;;;16.40;75.40;;;;;;5157207;27;20015;-74
2021/05/24 03:14:12;;;;;;;11.15;5.80;;;16.40;75.50;;;;;;5157492;27;20453;-75
2021/05/24 03:16:38;;;;;;;9.82;5.30;;;16.40;75.90;;;;;;5156867;27;20023;-74
2021/05/24 03:19:05;;;;;;;8.43;5.38;;;16.40;76.10;;;;;;5157088;27;20029;-75
2021/05/24 03:21:31;;;;;;;9.38;4.50;;;16.40;76.50;;;;;;5157117;27;20030;-75
2021/05/24 03:23:57;;;;;;;7.32;4.20;;;16.40;76.70;;;;;;5156804;27;20533;-75
2021/05/24 03:26:22;;;;;;;5.80;4.38;;;16.40;76.60;;;;;;5157026;27;20027;-79
2021/05/24 03:28:48;;;;;;;10.25;5.20;;;16.30;77.40;;;;;;5157160;27;20075;-74
2021/05/24 03:31:15;;;;;;;7.07;5.07;;;16.30;77.20;;;;;;5156898;27;20062;-74
2021/05/24 03:33:41;;;;;;;9.45;4.82;;;16.30;77.40;;;;;;5156821;27;20027;-75
2021/05/24 03:36:08;;;;;;;7.05;4.95;;;16.30;77.60;;;;;;5156969;27;20023;-74
2021/05/24 03:38:34;;;;;;;7.93;4.78;;;16.20;77.60;;;;;;5157471;27;20349;-75
2021/05/24 03:41:00;;;;;;;6.85;4.38;;;16.20;77.60;;;;;;5156587;27;20022;-75
2021/05/24 03:43:26;;;;;;;7.97;4.78;;;16.20;77.70;;;;;;5157442;27;20041;-75
2021/05/24 03:45:52;;;;;;;7.78;4.93;;;16.20;77.90;;;;;;5156425;27;20381;-74
2021/05/24 03:48:18;;;;;;;7.85;5.03;;;16.10;77.70;;;;;;5156489;27;20027;-74
2021/05/24 03:50:44;;;;;;;7.82;5.13;;;16.10;77.90;;;;;;5137371;27;20099;-74
2021/05/24 03:53:09;;;;;;;7.65;5.13;;;16.00;78.00;;;;;;5137737;27;20049;-74
2021/05/24 03:55:35;;;;;;;5.68;4.65;;;16.00;78.10;;;;;;5138064;27;20034;-74
2021/05/24 03:58:01;;;;;;;6.13;4.35;;;16.00;78.20;;;;;;5156856;27;20503;-74
2021/05/24 04:00:27;;;;;;;4.97;4.45;;;16.00;78.20;;;;;;5156976;27;20018;-74
2021/05/24 04:02:53;;;;;;;6.35;4.55;;;16.00;78.40;;;;;;5137635;27;20035;-74
2021/05/24 04:07:50;;;;;;;5.25;4.38;;;15.90;78.60;;;;;;5156370;27;20018;-74
2021/05/24 04:10:18;;;;;;;6.53;4.82;;;15.90;78.80;;;;;;5156056;27;20022;-74
2021/05/24 04:12:44;;;;;;;6.47;5.00;;;15.90;78.90;;;;;;5155868;27;20070;-74
2021/05/24 04:15:12;;;;;;;8.18;5.78;;;15.80;79.10;;;;;;5155594;27;20083;-75
2021/05/24 04:17:39;;;;;;;6.30;5.45;;;15.80;79.90;;;;;;5155800;27;20417;-75
2021/05/24 04:20:07;;;;;;;8.25;5.55;;;15.80;79.70;;;;;;5154288;27;20065;-75
2021/05/24 04:22:35;;;;;;;8.80;5.90;;;15.70;80.10;;;;;;5156547;27;20460;-75
2021/05/24 04:25:02;;;;;;;7.50;5.50;;;15.70;80.60;;;;;;5155998;27;20034;-74
2021/05/24 04:27:27;;;;;;;7.65;5.28;;;15.70;80.90;;;;;;5155452;27;20380;-75
2021/05/24 04:29:53;;;;;;;12.00;6.03;;;15.80;81.10;;;;;;5155678;27;20022;-74
2021/05/24 04:32:19;;;;;;;6.32;5.00;;;15.80;81.10;;;;;;5155726;27;20371;-74
2021/05/24 04:34:46;;;;;;;6.93;5.00;;;15.90;80.90;;;;;;5155426;27;20034;-75
2021/05/24 04:37:11;;;;;;;7.55;4.57;;;15.90;80.80;;;;;;5155509;27;20372;-75
2021/05/24 04:39:41;;;;;;;7.10;4.93;;;15.90;80.80;;;;;;5155828;27;20023;-76
2021/05/24 04:42:07;;;;;;;6.43;4.95;;;16.00;80.80;;;;;;5136850;27;20034;-74
2021/05/24 04:44:33;;;;;;;6.85;5.13;;;16.00;80.90;;;;;;5155391;27;20042;-75
2021/05/24 04:46:58;;;;;;;7.15;4.97;;;16.00;80.80;;;;;;5155942;27;20113;-74
2021/05/24 04:49:24;;;;;;;7.90;5.15;;;16.10;80.80;;;;;;5155384;27;20457;-74
2021/05/24 04:51:50;;;;;;;6.70;5.13;;;16.10;80.70;;;;;;5155897;27;20072;-74
2021/05/24 04:54:16;;;;;;;5.93;4.40;;;16.20;80.60;;;;;;5155847;27;20022;-74
2021/05/24 04:56:41;;;;;;;7.43;5.05;;;16.20;80.40;;;;;;5155277;27;20022;-73
2021/05/24 04:59:07;;;;;;;6.88;5.00;;;16.30;80.20;;;;;;5136645;27;20072;-74
2021/05/24 05:01:33;;;;;;;5.70;4.65;;;16.20;80.10;;;;;;5155415;27;20026;-75
2021/05/24 05:03:58;;;;;;;6.53;4.45;;;16.20;79.90;;;;;;5154228;27;20031;-75
2021/05/24 05:06:24;;;;;;;5.47;4.90;;;16.20;79.90;;;;;;5155011;27;20031;-75
2021/05/24 05:08:50;;;;;;;6.68;4.75;;;16.30;79.90;;;;;;5155203;27;20102;-75
2021/05/24 05:11:15;;;;;;;6.57;4.47;;;16.20;79.60;;;;;;5153908;27;20027;-74
2021/05/24 05:13:44;;;;;;;6.13;4.47;;;16.20;79.60;;;;;;5136633;27;20034;-74
2021/05/24 05:16:11;;;;;;;5.63;4.32;;;16.20;79.80;;;;;;5155166;27;20031;-74
2021/05/24 05:18:36;;;;;;;5.32;4.30;;;16.20;79.90;;;;;;5155524;27;20345;-74
2021/05/24 05:21:03;;;;;;;4.60;3.90;;;16.30;79.80;;;;;;5154718;27;20023;-74
2021/05/24 05:23:29;;;;;;;6.18;4.05;;;16.30;79.60;;;;;;5136234;27;20027;-74
2021/05/24 05:25:55;;;;;;;4.97;3.90;;;16.40;79.60;;;;;;5155260;27;20025;-74
2021/05/24 05:28:23;;;;;;;5.75;3.90;;;16.40;79.40;;;;;;5154777;27;20039;-74
2021/05/24 05:30:49;;;;;;;4.38;3.67;;;16.50;79.30;;;;;;5153837;27;20048;-74
2021/05/24 05:33:15;;;;;;;4.93;3.83;;;16.50;78.90;;;;;;5154693;27;20062;-74
2021/05/24 05:35:45;;;;;;;5.28;3.83;;;16.50;78.60;;;;;;5154855;27;20468;-74
2021/05/24 05:38:11;;;;;;;4.30;3.72;;;16.50;78.40;;;;;;5137023;27;20444;-74
2021/05/24 05:40:36;;;;;;;7.25;4.30;;;16.50;78.00;;;;;;5154816;27;20067;-74
2021/05/24 05:43:02;;;;;;;6.78;4.45;;;16.50;77.70;;;;;;5136399;27;20084;-74
2021/05/24 05:45:28;;;;;;;7.65;4.70;;;16.40;77.60;;;;;;5154366;27;20025;-75
2021/05/24 05:47:54;;;;;;;7.75;4.60;;;16.40;77.70;;;;;;5154761;27;20455;-74
2021/05/24 05:50:19;;;;;;;8.68;4.63;;;16.40;77.80;;;;;;5136534;27;20049;-76
2021/05/24 05:52:45;;;;;;;8.95;5.50;;;16.30;77.70;;;;;;5154478;27;20027;-76
2021/05/24 05:55:11;;;;;;;5.60;4.85;;;16.20;77.70;;;;;;5154382;27;20022;-75
2021/05/24 05:57:37;;;;;;;7.38;5.18;;;16.20;77.70;;;;;;5154305;27;20023;-75
2021/05/24 06:00:04;;;;;;;9.05;5.10;;;16.10;77.90;;;;;;5154925;27;20019;-75
2021/05/24 06:02:30;;;;;;;8.13;4.65;;;16.10;78.10;;;;;;5154351;27;20049;-76
2021/05/24 06:04:56;;;;;;;10.05;5.07;;;16.00;78.20;;;;;;5154921;27;20019;-74
2021/05/24 06:07:21;;;;;;;5.80;4.75;;;16.00;78.50;;;;;;5154563;27;20026;-74
2021/05/24 06:09:47;;;;;;;4.68;4.20;;;16.00;78.60;;;;;;5154589;27;20029;-74
2021/05/24 06:12:13;;;;;;;9.05;4.70;;;16.00;78.70;;;;;;5154865;27;20372;-74
2021/05/24 06:14:39;;;;;;;6.13;4.13;;;16.00;78.80;;;;;;5156583;27;20038;-74
2021/05/24 06:17:05;;;;;;;8.95;4.10;;;16.00;78.90;;;;;;5158267;27;20018;-74
2021/05/24 06:19:32;;;;;;;5.88;4.40;;;16.00;78.80;;;;;;5157997;27;20472;-74
2021/05/24 06:21:57;;;;;;;5.85;4.43;;;16.00;78.70;;;;;;5158809;27;20023;-73
2021/05/24 06:24:23;;;;;;;7.07;4.53;;;16.00;78.70;;;;;;5158313;27;20034;-75
2021/05/24 06:26:49;;;;;;;6.00;4.25;;;16.00;79.10;;;;;;5158068;27;20014;-74
2021/05/24 06:29:21;;;;;;;6.72;4.05;;;16.10;79.30;;;;;;5157988;27;20034;-74
2021/05/24 06:31:51;;;;;;;4.95;3.65;;;16.20;79.10;;;;;;5158315;27;20019;-75
2021/05/24 06:34:17;;;;;;;6.45;3.83;;;16.20;79.00;;;;;;5158459;27;20079;-74
2021/05/24 06:36:43;;;;;;;5.00;4.10;;;16.20;78.70;;;;;;5157523;27;20031;-74
2021/05/24 06:39:10;;;;;;;6.60;3.88;;;16.30;78.60;;;;;;5139095;27;20387;-76
2021/05/24 06:41:35;;;;;;;5.15;4.05;;;16.30;78.60;;;;;;5157866;27;20030;-74
2021/05/24 06:44:01;;;;;;;8.77;4.60;;;16.30;78.40;;;;;;5158304;27;20039;-74
2021/05/24 06:46:27;;;;;;;7.90;4.35;;;16.30;78.30;;;;;;5157240;27;20023;-75
2021/05/24 06:48:52;;;;;;;8.27;3.88;;;16.30;78.20;;;;;;5157358;27;20114;-74
2021/05/24 06:51:19;;;;;;;7.20;4.60;;;16.40;78.20;;;;;;5157493;27;20022;-75
2021/05/24 06:53:45;;;;;;;6.38;4.13;;;16.30;78.10;;;;;;5138806;27;20075;-74
2021/05/24 06:56:11;;;;;;;6.97;4.53;;;16.40;78.30;;;;;;5157299;27;20026;-74
2021/05/24 06:58:36;;;;;;;6.25;3.83;;;16.40;78.60;;;;;;5157230;27;20432;-75
2021/05/24 07:01:03;;;;;;;6.88;4.90;;;16.40;78.30;;;;;;5157336;27;20030;-75
2021/05/24 07:03:29;;;;;;;6.35;4.00;;;16.40;78.20;;;;;;5157154;27;20103;-76
2021/05/24 07:05:56;;;;;;;5.75;4.03;;;16.40;78.00;;;;;;5157209;27;20372;-74
2021/05/24 07:08:22;;;;;;;5.97;3.88;;;16.30;78.00;;;;;;5138602;27;20529;-75
2021/05/24 07:10:48;;;;;;;9.23;4.60;;;16.20;78.30;;;;;;5156923;27;20019;-76
2021/05/24 07:13:14;;;;;;;7.50;4.82;;;16.20;78.50;;;;;;5156829;27;20086;-75
2021/05/24 07:15:39;;;;;;;7.57;4.45;;;16.20;78.80;;;;;;5157322;27;20407;-74
2021/05/24 07:18:07;;;;;;;9.10;4.60;;;16.20;79.00;;;;;;5138480;27;20118;-76
2021/05/24 07:20:32;;;;;;;6.63;4.53;;;16.20;79.00;;;;;;5156774;27;20042;-75
2021/05/24 07:22:58;;;;;;;7.43;4.95;;;16.20;79.10;;;;;;5138344;27;20031;-75
2021/05/24 07:25:24;;;;;;;14.88;5.20;;;16.20;79.20;;;;;;5156270;27;20106;-77
2021/05/24 07:27:50;;;;;;;11.05;4.50;;;16.20;79.40;;;;;;5156439;27;20019;-75
2021/05/24 07:30:16;;;;;;;10.23;4.90;;;16.20;79.50;;;;;;5156463;27;20086;-75
2021/05/24 07:32:42;;;;;;;8.00;5.22;;;16.20;79.50;;;;;;5156741;27;20022;-75
2021/05/24 07:35:09;;;;;;;7.82;4.80;;;16.20;79.50;;;;;;5156938;27;20109;-76
2021/05/24 07:37:35;;;;;;;6.70;4.88;;;16.20;79.80;;;;;;5156368;27;20027;-77
2021/05/24 07:40:01;;;;;;;8.10;5.10;;;16.20;80.20;;;;;;5156831;27;20098;-75
2021/05/24 07:42:27;;;;;;;8.45;5.30;;;16.20;80.30;;;;;;5156216;27;20404;-75
2021/05/24 07:44:53;;;;;;;8.10;5.93;;;16.10;80.30;;;;;;5156585;27;20034;-75
2021/05/24 07:47:18;;;;;;;7.75;5.25;;;16.10;80.40;;;;;;5156407;27;20030;-75
2021/05/24 07:49:46;;;;;;;8.18;5.13;;;16.10;80.20;;;;;;5138262;27;20463;-75
2021/05/24 07:52:12;;;;;;;6.38;5.32;;;16.10;80.40;;;;;;5156210;27;20026;-74
2021/05/24 07:54:37;;;;;;;6.25;5.00;;;16.10;80.70;;;;;;5156371;27;20038;-76
2021/05/24 07:57:03;;;;;;;10.18;5.40;;;16.10;80.80;;;;;;5156414;27;20034;-75
2021/05/24 07:59:29;;;;;;;5.75;4.50;;;16.10;81.00;;;;;;5156442;27;20031;-75
2021/05/24 08:01:55;;;;;;;7.50;5.00;;;16.10;80.80;;;;;;5156085;27;20029;-75
2021/05/24 08:04:21;;;;;;;6.28;4.50;;;16.10;80.70;;;;;;5156722;27;20027;-76
2021/05/24 08:06:46;;;;;;;8.13;5.40;;;16.10;80.80;;;;;;5155666;27;20031;-76
2021/05/24 08:09:12;;;;;;;7.90;4.75;;;16.00;80.50;;;;;;5155446;27;20025;-74
2021/05/24 08:11:38;;;;;;;8.10;5.25;;;16.00;80.70;;;;;;5155889;27;20102;-76
2021/05/24 08:14:04;;;;;;;6.43;4.90;;;16.00;81.00;;;;;;5155508;27;20027;-75
2021/05/24 08:16:30;;;;;;;8.23;5.10;;;15.90;81.30;;;;;;5156088;27;20034;-74
2021/05/24 08:18:56;;;;;;;5.78;5.18;;;15.90;81.20;;;;;;5155905;27;20368;-75
2021/05/24 08:21:21;;;;;;;7.32;5.05;;;15.90;81.50;;;;;;5155755;27;20022;-75
2021/05/24 08:23:47;;;;;;;6.47;4.78;;;16.00;81.50;;;;;;5155606;27;20034;-75
2021/05/24 08:26:13;;;;;;;7.30;4.72;;;15.90;81.40;;;;;;5155794;27;20443;-75
2021/05/24 08:28:39;;;;;;;7.22;5.13;;;16.00;81.70;;;;;;5155580;27;20023;-75
2021/05/24 08:31:05;;;;;;;7.90;4.57;;;16.00;81.80;;;;;;5156085;27;20456;-75
2021/05/24 08:33:31;;;;;;;8.93;4.60;;;16.10;81.80;;;;;;5137097;27;20615;-75
2021/05/24 08:35:57;;;;;;;6.43;4.78;;;16.10;81.70;;;;;;5155649;27;20098;-75
2021/05/24 08:38:24;;;;;;;6.25;4.50;;;16.10;81.50;;;;;;5136878;27;20026;-75
2021/05/24 08:40:50;;;;;;;7.95;4.97;;;16.10;81.70;;;;;;5155434;27;20027;-75
2021/05/24 08:43:17;;;;;;;7.93;4.55;;;16.10;81.70;;;;;;5156066;27;20345;-75
2021/05/24 08:45:43;;;;;;;6.05;4.45;;;16.20;81.90;;;;;;5156143;27;20429;-75
2021/05/24 08:48:11;;;;;;;6.28;4.30;;;16.30;82.00;;;;;;5155089;27;20446;-74
2021/05/24 08:50:39;;;;;;;6.32;4.22;;;16.30;81.90;;;;;;5155511;27;20083;-74
2021/05/24 08:53:07;;;;;;;10.15;4.13;;;16.40;81.80;;;;;;5155579;27;20428;-76
2021/05/24 08:55:33;;;;;;;5.63;4.05;;;16.40;81.60;;;;;;5155231;27;20023;-74
2021/05/24 08:57:59;;;;;;;5.72;4.20;;;16.40;81.40;;;;;;5155256;27;20023;-74
2021/05/24 09:00:25;;;;;;;5.32;4.38;;;16.50;81.40;;;;;;5154042;27;20033;-74
2021/05/24 09:02:56;;;;;;;4.22;3.83;;;16.50;81.30;;;;;;5155164;27;20034;-75
2021/05/24 09:05:28;;;;;;;5.25;3.72;;;16.50;81.30;;;;;;5155218;27;20050;-75
2021/05/24 09:07:57;;;;;;;6.57;4.03;;;16.50;80.90;;;;;;5155360;27;20135;-75
2021/05/24 09:10:28;;;;;;;5.15;3.42;;;16.50;80.90;;;;;;5136699;27;20046;-75
2021/05/24 09:12:55;;;;;;;3.90;3.60;;;16.40;80.90;;;;;;5155139;27;20035;-76
2021/05/24 09:15:24;;;;;;;7.95;3.50;;;16.40;80.90;;;;;;5155401;27;20536;-74
2021/05/24 09:17:53;;;;;;;4.45;3.35;;;16.40;81.00;;;;;;5155085;27;20030;-75
2021/05/24 09:20:28;;;;;;;4.68;3.30;;;16.40;81.00;;;;;;5136451;27;20027;-74
2021/05/24 09:23:16;;;;;;;5.22;2.97;;;16.40;81.00;;;;;;5155385;27;20364;-74
2021/05/24 09:25:47;;;;;;;4.22;3.10;;;16.40;80.80;;;;;;5155969;27;20102;-75
2021/05/24 09:28:30;;;;;;;4.53;2.97;;;16.40;80.90;;;;;;5154898;27;20031;-75
2021/05/24 09:31:10;;;;;;;3.20;2.50;;;16.30;80.60;;;;;;5155160;27;20463;-74
2021/05/24 09:33:39;;;;;;;3.33;2.53;;;16.30;80.60;;;;;;5154974;27;20098;-75
2021/05/24 09:36:05;;;;;;;3.70;2.53;;;16.30;80.50;;;;;;5136403;27;20045;-75
2021/05/24 09:38:37;;;;;;;3.17;2.47;;;16.30;80.40;;;;;;5154916;27;20121;-75
2021/05/24 09:41:05;;;;;;;4.25;2.33;;;16.30;80.50;;;;;;5136340;27;20031;-74
2021/05/24 09:43:33;;;;;;;3.00;2.10;;;16.30;80.60;;;;;;5155552;27;20141;-75
2021/05/24 09:46:10;;;;;;;5.38;2.30;;;16.30;80.40;;;;;;5154926;27;20065;-75
2021/05/24 09:48:37;;;;;;;2.75;2.30;;;16.30;80.20;;;;;;5155016;27;20034;-75
2021/05/24 09:51:12;;;;;;;4.20;2.20;;;16.20;80.20;;;;;;5158932;27;20106;-75
2021/05/24 09:53:39;;;;;;;2.28;2.08;;;16.10;80.20;;;;;;5140919;27;20460;-75
2021/05/24 09:56:07;;;;;;;2.47;2.28;;;16.10;80.50;;;;;;5158088;27;20058;-75
2021/05/24 09:58:34;;;;;;;2.42;2.20;;;16.10;80.50;;;;;;5139587;27;20030;-75
2021/05/24 10:01:17;;;;;;;3.28;2.20;;;16.10;80.40;;;;;;5158933;27;20487;-75
2021/05/24 10:03:46;;;;;;;3.30;2.30;;;16.00;80.50;;;;;;5157641;27;20042;-73
2021/05/24 10:06:13;;;;;;;2.55;2.03;;;16.00;80.50;;;;;;5158541;27;20038;-74
2021/05/24 10:08:40;;;;;;;3.78;2.42;;;16.00;80.50;;;;;;5158282;27;20030;-75
2021/05/24 10:11:07;;;;;;;5.40;2.47;;;16.00;80.70;;;;;;5158455;27;20067;-74
2021/05/24 10:13:33;;;;;;;3.25;2.40;;;15.90;80.80;;;;;;5139501;27;20142;-74
2021/05/24 10:16:03;;;;;;;4.68;2.20;;;16.00;81.10;;;;;;5139921;27;20022;-74
2021/05/24 10:18:30;;;;;;;2.97;2.20;;;16.00;81.00;;;;;;5157907;27;20025;-74
2021/05/24 10:21:01;;;;;;;2.50;2.30;;;16.00;80.80;;;;;;5158156;27;20076;-74
2021/05/24 10:23:28;;;;;;;2.40;2.20;;;16.00;80.50;;;;;;5158326;27;20065;-74
2021/05/24 10:25:56;;;;;;;2.28;2.08;;;16.10;80.80;;;;;;5158391;27;20035;-75
2021/05/24 10:28:23;;;;;;;3.40;2.00;;;16.10;80.60;;;;;;5157841;27;20480;-75
2021/05/24 10:30:50;;;;;;;2.10;1.90;;;16.10;80.70;;;;;;5158099;27;20468;-75
2021/05/24 10:33:16;;;;;;;2.67;1.67;;;16.10;80.70;;;;;;5158087;27;20027;-75
2021/05/24 10:35:44;;;;;;;2.83;1.85;;;16.10;80.50;;;;;;5158534;27;20022;-75
2021/05/24 10:38:27;;;;;;;3.75;2.28;;;16.10;80.40;;;;;;5158078;27;20424;-74
2021/05/24 10:41:06;;;;;;;2.20;1.77;;;16.10;80.30;;;;;;5158224;27;20393;-76
2021/05/24 10:43:53;;;;;;;3.28;2.17;;;16.10;80.20;;;;;;5158707;27;20079;-74
2021/05/24 10:46:31;;;;;;;2.00;1.90;;;16.20;80.40;;;;;;5139153;27;20027;-75
2021/05/24 10:48:57;;;;;;;2.42;1.88;;;16.20;80.10;;;;;;5157869;27;20072;-74
2021/05/24 10:51:45;;;;;;;1.95;1.80;;;16.20;79.90;;;;;;5157305;27;20480;-74
2021/05/24 10:54:11;;;;;;;1.95;1.85;;;16.10;79.90;;;;;;5157508;27;20037;-74
2021/05/24 10:56:43;;;;;;;3.05;2.15;;;16.20;80.10;;;;;;5157311;27;20047;-75
2021/05/24 10:59:43;;;;;;;3.05;1.70;;;16.20;80.20;;;;;;5157023;27;20034;-74
2021/05/24 11:02:26;;;;;;;2.50;1.60;;;16.20;80.20;;;;;;5156771;27;20023;-76
2021/05/24 11:05:06;;;;;;;2.15;1.58;;;16.20;79.80;;;;;;5157716;27;20023;-75
2021/05/24 11:07:44;;;;;;;2.10;1.55;;;16.30;80.00;;;;;;5157778;27;20021;-74
2021/05/24 11:10:13;;;;;;;4.40;1.80;;;16.30;79.60;;;;;;5157352;27;20029;-75
2021/05/24 11:12:39;;;;;;;2.72;1.60;;;16.30;79.60;;;;;;5157108;27;20027;-76
2021/05/24 11:15:19;;;;;;;1.50;1.40;;;16.30;79.70;;;;;;5157216;27;20050;-74
2021/05/24 11:18:03;;;;;;;2.67;1.83;;;16.40;79.60;;;;;;5157511;27;20368;-75
2021/05/24 11:20:34;;;;;;;1.57;1.07;;;16.40;79.50;;;;;;5157297;27;20095;-75
2021/05/24 11:25:55;;;;;;;6.38;1.35;;;16.50;79.30;;;;;;5157112;27;20022;-75
2021/05/24 11:28:32;;;;;;;2.45;1.65;;;16.50;78.80;;;;;;5156990;27;20468;-74
2021/05/24 11:31:25;;;;;;;1.50;1.40;;;16.50;78.50;;;;;;5156853;27;20027;-75
2021/05/24 11:33:54;;;;;;;1.92;1.75;;;16.50;78.30;;;;;;5156759;27;20039;-74
2021/05/24 11:36:42;;;;;;;1.35;1.20;;;16.60;78.50;;;;;;5155477;27;20027;-75
2021/05/24 11:39:15;;;;;;;4.95;1.33;;;16.70;78.30;;;;;;5156898;27;20019;-75
2021/05/24 11:41:54;;;;;;;1.70;1.60;;;16.70;77.70;;;;;;5138483;27;20118;-76
2021/05/24 11:44:22;;;;;;;1.40;1.30;;;16.70;77.50;;;;;;5157007;27;20251;-75
2021/05/24 11:46:53;;;;;;;1.63;1.52;;;16.70;77.00;;;;;;5156550;27;20018;-75
2021/05/24 11:49:31;;;;;;;1.58;1.42;;;16.70;76.60;;;;;;5156644;27;20110;-75
2021/05/24 11:51:57;;;;;;;1.50;1.40;;;16.60;76.60;;;;;;5156591;27;20480;-75
2021/05/24 11:54:25;;;;;;;2.78;1.85;;;16.60;76.70;;;;;;5155928;27;20038;-75
2021/05/24 11:56:56;;;;;;;1.60;1.50;;;16.60;76.60;;;;;;5137512;27;20037;-76
2021/05/24 11:59:24;;;;;;;3.42;1.52;;;16.50;76.40;;;;;;5156162;27;20030;-76
2021/05/24 12:01:51;;;;;;;2.72;1.95;;;16.50;76.80;;;;;;5156541;27;20019;-76
2021/05/24 12:04:38;;;;;;;2.08;1.52;;;16.60;76.80;;;;;;5156173;27;20035;-74
2021/05/24 12:07:11;;;;;;;3.25;1.70;;;16.60;76.50;;;;;;5156447;27;20031;-76
2021/05/24 12:09:54;;;;;;;1.90;1.80;;;16.50;76.50;;;;;;5156461;27;20026;-75
2021/05/24 12:12:24;;;;;;;1.90;1.52;;;16.50;76.40;;;;;;5155502;27;20034;-75
2021/05/24 12:14:54;;;;;;;2.67;1.65;;;16.50;76.20;;;;;;5156500;27;20031;-75
2021/05/24 12:17:21;;;;;;;3.30;1.90;;;16.40;76.50;;;;;;5156280;27;20066;-75
2021/05/24 12:19:51;;;;;;;2.50;1.77;;;16.50;77.30;;;;;;5156000;27;20074;-74
2021/05/24 12:22:17;;;;;;;1.67;1.58;;;16.50;76.30;;;;;;5155655;27;20532;-74
2021/05/24 12:24:46;;;;;;;2.72;2.10;;;16.50;76.10;;;;;;5137352;27;20023;-74
2021/05/24 12:27:14;;;;;;;3.33;2.10;;;16.40;75.90;;;;;;5136502;27;20022;-75
2021/05/24 12:30:10;;;;;;;2.53;1.90;;;16.40;76.00;;;;;;5155741;27;20026;-75
2021/05/24 12:32:37;;;;;;;;;;;16.30;76.20;;;;;;5137190;27;20030;-74
2021/05/24 12:35:11;;;;;;;2.72;2.17;;;16.30;76.10;;;;;;5155499;27;20042;-75
2021/05/24 12:37:39;;;;;;;3.05;2.00;;;16.30;76.00;;;;;;5155982;27;20391;-74
2021/05/24 12:40:10;;;;;;;1.90;1.80;;;16.30;76.00;;;;;;5155463;27;20031;-74
2021/05/24 12:42:38;;;;;;;3.40;1.65;;;16.30;76.20;;;;;;5156112;27;20127;-74
2021/05/24 12:45:09;;;;;;;3.35;1.83;;;16.30;76.00;;;;;;5155378;27;20027;-74
2021/05/24 12:47:35;;;;;;;2.33;1.85;;;16.30;75.70;;;;;;5155973;27;20038;-74
2021/05/24 12:50:15;;;;;;;2.20;1.77;;;16.20;75.60;;;;;;5155699;27;20453;-75
2021/05/24 12:52:42;;;;;;;3.67;2.25;;;16.20;75.80;;;;;;5155077;27;20495;-74
2021/05/24 12:55:18;;;;;;;2.15;1.95;;;16.20;75.90;;;;;;5155391;27;20050;-76